Time;durP1;ratioP1;P1;durP2;ratioP2;P2;SDS_P1;SDS_P2;PMS_P1;PMS_P2;Temp;Humidity;BMP_temperature;BMP_pressure;BME280_temperature;BME280_humidity;BME280_pressure;Samples;Min_cycle;Max_cycle;Signal;HPM_P1;HPM_P2
2021/09/13 00:04:10;;;;;;;;;;;18.20;99.90;;;17.06;94.04;95836.72;10521861;28;1972;-75
2021/09/13 00:09:12;;;;;;;;;;;18.10;99.90;;;16.91;95.01;95832.47;10519587;28;2038;-74
2021/09/13 00:14:15;;;;;;;;;;;17.90;99.90;;;16.98;95.26;95834.72;10517780;28;2026;-75
2021/09/13 00:19:18;;;;;;;;;;;17.90;99.90;;;17.20;94.25;95834.69;10524316;28;2074;-75
2021/09/13 00:24:21;;;;;;;;;;;18.00;99.90;;;17.19;93.87;95830.38;10507949;28;1766;-76
2021/09/13 00:29:24;;;;;;;;;;;18.10;99.90;;;17.17;93.89;95832.56;10517414;28;2046;-75
2021/09/13 00:34:28;;;;;;;;;;;18.10;99.90;;;17.20;93.79;95836.59;10513987;28;1856;-75
2021/09/13 00:39:31;;;;;;;;;;;18.20;99.90;;;17.12;94.18;95840.88;10519605;28;2055;-75
2021/09/13 00:44:34;;;;;;;;;;;18.10;99.90;;;17.18;94.51;95845.06;10508526;28;1798;-75
2021/09/13 00:49:37;;;;;;;;;;;18.10;99.90;;;17.00;95.26;95841.47;10511976;28;2185;-75
2021/09/13 00:54:40;;;;;;;;;;;18.10;99.90;;;16.95;95.66;95840.81;10509844;28;1834;-75
2021/09/13 00:59:42;;;;;;;;;;;18.00;99.90;;;16.93;95.93;95843.84;10513140;28;1956;-75
2021/09/13 01:04:45;;;;;;;;;;;18.00;99.90;;;16.58;98.23;95840.09;10516282;28;2253;-75
2021/09/13 01:09:48;;;;;;;;;;;17.80;99.90;;;16.75;97.74;95836.72;10519167;28;2155;-75
2021/09/13 01:14:51;;;;;;;;;;;17.70;99.90;;;16.73;97.70;95837.03;10520553;28;1777;-74
2021/09/13 01:19:54;;;;;;;;;;;17.80;99.90;;;16.66;98.40;95830.38;10523154;28;2087;-74
2021/09/13 01:24:57;;;;;;;;;;;17.70;99.90;;;16.49;98.92;95836.53;10516463;28;2028;-75
2021/09/13 01:30:00;;;;;;;;;;;17.60;99.90;;;16.59;99.33;95825.41;10514808;28;1889;-75
2021/09/13 01:35:03;;;;;;;;;;;17.40;99.90;;;16.67;98.27;95835.53;10508003;28;1987;-74
2021/09/13 01:40:06;;;;;;;;;;;17.50;99.90;;;16.65;98.51;95821.44;10517729;28;1926;-74
2021/09/13 01:45:09;;;;;;;;;;;17.60;99.90;;;16.58;98.83;95821.09;10517614;28;2031;-74
2021/09/13 01:50:11;;;;;;;;;;;17.60;99.90;;;16.40;100.00;95827.53;10513699;28;2039;-74
2021/09/13 01:55:14;;;;;;;;;;;17.50;99.90;;;16.43;100.00;95829.63;10514163;28;1842;-74
2021/09/13 02:00:17;;;;;;;;;;;17.40;99.90;;;16.34;100.00;95828.75;10519843;28;2153;-74
2021/09/13 02:05:20;;;;;;;;;;;17.40;99.90;;;16.47;99.90;95830.59;10511330;28;1975;-74
2021/09/13 02:10:23;;;;;;;;;;;17.40;99.90;;;16.35;100.00;95825.75;10521446;28;2027;-74
2021/09/13 02:15:27;;;;;;;;;;;17.30;99.90;;;16.33;100.00;95819.81;10526189;28;1932;-74
2021/09/13 02:20:30;;;;;;;;;;;17.40;99.90;;;16.11;100.00;95825.25;10521473;28;1979;-74
2021/09/13 02:25:32;;;;;;;;;;;17.30;99.90;;;16.30;100.00;95831.28;10520826;28;2126;-73
2021/09/13 02:30:35;;;;;;;;;;;17.20;99.90;;;16.30;100.00;95825.06;10531485;28;1967;-73
2021/09/13 02:35:38;;;;;;;;;;;17.20;99.90;;;16.21;100.00;95822.28;10517067;28;1988;-73
2021/09/13 02:40:41;;;;;;;;;;;17.20;99.90;;;16.34;100.00;95829.56;10521732;28;1991;-74
2021/09/13 02:45:44;;;;;;;;;;;17.20;99.90;;;16.39;99.38;95820.50;10517391;28;2059;-75
2021/09/13 02:50:47;;;;;;;;;;;17.20;99.90;;;16.43;99.48;95814.16;10524674;28;2026;-75
2021/09/13 02:55:50;;;;;;;;;;;17.30;99.90;;;16.42;98.75;95811.75;10520794;28;2023;-73
2021/09/13 03:00:52;;;;;;;;;;;17.40;99.90;;;16.38;99.37;95811.56;10515455;28;2046;-73
2021/09/13 03:05:56;;;;;;;;;;;17.40;99.90;;;16.38;99.42;95816.19;10515262;28;2114;-75
2021/09/13 03:10:59;;;;;;;;;;;17.40;99.90;;;16.38;99.23;95806.13;10523385;28;2063;-74
2021/09/13 03:16:02;;;;;;;;;;;17.30;99.90;;;16.54;98.09;95813.88;10515769;28;2333;-74
2021/09/13 03:21:05;;;;;;;;;;;17.40;99.90;;;16.53;97.78;95810.34;10519698;28;2107;-74
2021/09/13 03:26:07;;;;;;;;;;;17.40;99.90;;;16.39;98.42;95817.78;10517959;28;2126;-74
2021/09/13 03:31:10;;;;;;;;;;;17.40;99.90;;;16.53;97.79;95809.56;10524187;28;2121;-74
2021/09/13 03:36:16;;;;;;;;;;;17.40;99.90;;;16.41;99.38;95815.56;10523554;28;2051;-74
2021/09/13 03:41:19;;;;;;;;;;;17.40;99.90;;;16.35;100.00;95814.06;10526671;28;2119;-74
2021/09/13 03:46:22;;;;;;;;;;;17.40;99.90;;;16.26;100.00;95813.22;10523554;28;2090;-74
2021/09/13 03:51:25;;;;;;;;;;;17.30;99.90;;;16.30;100.00;95803.38;10526908;28;2099;-75
2021/09/13 03:56:27;;;;;;;;;;;17.30;99.90;;;16.23;100.00;95803.00;10516095;28;2153;-74
2021/09/13 04:01:31;;;;;;;;;;;17.20;99.90;;;16.21;100.00;95814.94;10510165;28;2196;-74
2021/09/13 04:06:42;;;;;;;;;;;17.20;99.90;;;16.18;100.00;95807.44;10512593;28;2130;-74
2021/09/13 04:11:49;;;;;;;;;;;17.20;99.90;;;16.26;100.00;95807.81;10515730;28;2205;-74
2021/09/13 04:16:54;;;;;;;;;;;17.20;99.90;;;16.19;100.00;95800.09;10518005;28;2014;-75
2021/09/13 04:21:56;;;;;;;;;;;17.20;99.90;;;16.24;100.00;95793.75;10507480;28;2173;-74
2021/09/13 04:26:59;;;;;;;;;;;17.20;99.90;;;16.20;100.00;95788.94;10514941;28;2007;-75
2021/09/13 04:32:02;;;;;;;;;;;17.20;99.90;;;16.03;100.00;95783.41;10515479;28;2066;-75
2021/09/13 04:37:05;;;;;;;;;;;17.20;99.90;;;16.13;100.00;95793.19;10524868;28;2021;-75
2021/09/13 04:42:08;;;;;;;;;;;17.10;99.90;;;16.01;100.00;95796.44;10519347;28;2137;-74
2021/09/13 04:47:11;;;;;;;;;;;17.10;99.90;;;16.01;100.00;95796.44;10511002;28;2112;-74
2021/09/13 04:52:13;;;;;;;;;;;17.00;99.90;;;15.87;100.00;95791.09;10517287;28;1841;-75
2021/09/13 04:57:16;;;;;;;;;;;16.90;99.90;;;15.85;100.00;95787.88;10509771;28;2059;-74
2021/09/13 05:02:19;;;;;;;;;;;16.90;99.90;;;15.94;100.00;95790.66;10518046;28;2016;-74
2021/09/13 05:07:22;;;;;;;;;;;16.90;99.90;;;16.04;100.00;95795.06;10514291;28;1716;-74
2021/09/13 05:12:25;;;;;;;;;;;16.90;99.90;;;16.12;100.00;95797.03;10516922;28;1991;-75
2021/09/13 05:17:28;;;;;;;;;;;17.00;99.90;;;16.23;99.98;95794.88;10521721;28;2034;-73
2021/09/13 05:22:31;;;;;;;;;;;17.10;99.90;;;16.24;100.00;95796.47;10513903;28;1914;-73
2021/09/13 05:27:33;;;;;;;;;;;17.10;99.90;;;16.32;98.89;95801.16;10524645;28;2035;-74
2021/09/13 05:32:36;;;;;;;;;;;17.20;99.90;;;16.30;99.80;95808.78;10519187;28;1809;-73
2021/09/13 05:37:39;;;;;;;;;;;17.20;99.90;;;16.30;100.00;95814.22;10513573;28;2062;-73
2021/09/13 05:42:42;;;;;;;;;;;17.30;99.90;;;16.50;99.27;95813.72;10515690;28;1926;-73
2021/09/13 05:47:45;;;;;;;;;;;17.40;99.90;;;16.65;97.19;95810.59;10533627;28;2183;-74
2021/09/13 05:52:48;;;;;;;;;;;17.50;99.90;;;16.53;98.23;95804.94;10523305;28;1885;-75
2021/09/13 05:57:50;;;;;;;;;;;17.50;99.90;;;16.77;97.48;95817.41;10518766;28;2279;-75
2021/09/13 06:02:54;;;;;;;;;;;17.60;99.90;;;16.98;96.17;95813.81;10524316;28;1931;-75
2021/09/13 06:07:57;;;;;;;;;;;17.70;99.90;;;17.02;94.52;95819.44;10532324;28;2254;-74
2021/09/13 06:12:59;;;;;;;;;;;17.90;99.90;;;17.25;93.29;95820.97;10521057;28;1833;-75
2021/09/13 06:18:02;;;;;;;;;;;18.10;99.90;;;17.47;91.14;95825.50;10526275;28;2381;-73
2021/09/13 06:23:05;;;;;;;;;;;18.20;99.90;;;17.55;90.49;95826.63;10514529;28;2074;-76
2021/09/13 06:28:08;;;;;;;;;;;18.40;99.90;;;17.47;92.29;95835.56;10527608;28;1892;-76
2021/09/13 06:33:11;;;;;;;;;;;18.40;99.90;;;17.71;89.59;95833.25;10514879;28;2130;-77
2021/09/13 06:38:14;;;;;;;;;;;18.50;99.90;;;17.73;87.81;95836.44;10518108;28;1973;-69
2021/09/13 06:43:18;;;;;;;;;;;18.50;99.90;;;17.25;88.19;95834.56;10508599;28;2022;-67
2021/09/13 06:48:20;;;;;;;;;;;18.40;99.90;;;17.88;86.93;95837.09;10509176;28;2089;-69
2021/09/13 06:53:23;;;;;;;;;;;18.50;99.90;;;18.17;84.05;95836.47;10516288;28;1893;-73
2021/09/13 06:58:26;;;;;;;;;;;18.80;99.90;;;18.36;81.05;95839.69;10510489;28;2031;-73
2021/09/13 07:03:29;;;;;;;;;;;19.00;99.90;;;18.33;81.65;95849.28;10512053;28;2230;-71
2021/09/13 07:08:33;;;;;;;;;;;19.10;99.90;;;18.21;80.84;95849.13;10523582;28;2040;-72
2021/09/13 07:13:36;;;;;;;;;;;19.10;99.90;;;18.47;79.95;95848.31;10519421;28;1987;-71
2021/09/13 07:18:41;;;;;;;;;;;19.20;99.90;;;18.55;80.36;95852.94;10510231;28;2024;-70
2021/09/13 07:23:44;;;;;;;;;;;19.20;99.90;;;18.49;80.91;95859.69;10504019;28;2078;-72
2021/09/13 07:28:47;;;;;;;;;;;19.40;99.90;;;18.50;80.96;95850.38;10518376;28;2003;-73
2021/09/13 07:33:50;;;;;;;;;;;19.30;99.90;;;18.69;79.24;95861.75;10504445;28;2074;-72
2021/09/13 07:38:53;;;;;;;;;;;19.30;99.90;;;19.28;75.56;95864.66;10516305;28;1931;-73
2021/09/13 07:43:56;;;;;;;;;;;19.70;99.90;;;19.16;75.98;95864.53;10506225;28;1991;-75
2021/09/13 07:48:59;;;;;;;;;;;20.00;99.90;;;18.98;73.55;95865.72;10517618;28;2072;-72
2021/09/13 07:54:02;;;;;;;;;;;19.80;99.90;;;19.50;71.16;95873.69;10515266;28;2083;-73
2021/09/13 07:59:05;;;;;;;;;;;20.00;99.90;;;19.78;71.25;95872.13;10514661;28;1988;-71
2021/09/13 08:04:09;;;;;;;;;;;20.30;99.90;;;20.11;70.01;95869.53;10518452;28;2066;-72
2021/09/13 08:09:12;;;;;;;;;;;20.60;99.90;;;20.32;68.92;95866.78;10502028;28;2102;-74
2021/09/13 08:14:15;;;;;;;;;;;20.90;99.90;;;20.67;66.89;95880.94;10523041;28;2031;-69
2021/09/13 08:19:18;;;;;;;;;;;21.20;99.90;;;20.59;66.84;95881.03;10527737;28;2095;-69
2021/09/13 08:24:21;;;;;;;;;;;21.40;99.90;;;20.77;67.04;95880.56;10511466;28;2105;-69
2021/09/13 08:29:24;;;;;;;;;;;21.30;99.90;;;21.26;65.14;95885.38;10540530;28;2051;-68
2021/09/13 08:34:27;;;;;;;;;;;21.60;99.90;;;21.34;64.51;95887.22;10537721;28;2105;-69
2021/09/13 08:39:30;;;;;;;;;;;21.90;99.90;;;21.30;65.32;95887.09;10530758;28;1928;-69
2021/09/13 08:44:34;;;;;;;;;;;22.00;99.90;;;20.97;66.27;95892.56;10524338;28;2083;-71
2021/09/13 08:49:37;;;;;;;;;;;21.90;99.90;;;20.87;65.25;95890.28;10523240;28;2126;-74
2021/09/13 08:54:40;;;;;;;;;;;21.80;99.90;;;20.24;68.75;95903.16;10515663;28;1869;-74
2021/09/13 08:59:44;;;;;;;;;;;21.30;99.90;;;20.69;65.70;95906.03;10528277;28;2075;-78
2021/09/13 09:04:47;;;;;;;;;;;21.40;99.90;;;20.63;65.88;95906.56;10524525;28;2401;-80
2021/09/13 09:09:50;;;;;;;;;;;21.50;99.90;;;20.72;65.09;95910.00;10519896;28;2034;-80
2021/09/13 09:14:54;;;;;;;;;;;21.50;99.90;;;20.49;66.28;95912.31;10530325;28;2023;-78
2021/09/13 09:19:57;;;;;;;;;;;21.50;99.90;;;20.80;65.39;95917.31;10550432;28;2105;-77
2021/09/13 09:25:03;;;;;;;;;;;21.60;99.90;;;21.11;64.53;95910.59;10551904;28;2197;-78
2021/09/13 09:30:06;;;;;;;;;;;21.80;99.90;;;21.34;63.70;95908.28;10550449;28;2174;-77
2021/09/13 09:35:09;;;;;;;;;;;22.00;99.90;;;21.34;63.33;95909.09;10545198;28;2011;-77
2021/09/13 09:40:12;;;;;;;;;;;22.20;99.90;;;21.49;62.11;95904.88;10546572;28;2252;-76
2021/09/13 09:45:15;;;;;;;;;;;22.20;99.90;;;21.63;61.78;95904.56;10534160;28;1978;-78
2021/09/13 09:50:18;;;;;;;;;;;22.50;99.90;;;21.89;61.91;95907.78;10526865;28;1933;-75
2021/09/13 09:55:21;;;;;;;;;;;22.70;99.90;;;21.47;64.04;95902.50;10533976;28;1908;-75
2021/09/13 10:00:24;;;;;;;;;;;22.50;99.90;;;21.24;65.02;95896.59;10514755;28;2285;-76
2021/09/13 10:05:27;;;;;;;;;;;22.30;99.90;;;21.80;63.76;95887.91;10507223;28;2356;-77
2021/09/13 10:10:30;;;;;;;;;;;22.30;99.90;;;21.68;64.00;95887.91;10512280;28;2094;-77
2021/09/13 10:15:33;;;;;;;;;;;22.60;99.90;;;21.51;64.92;95878.81;10511497;28;2222;-77
2021/09/13 10:20:36;;;;;;;;;;;22.50;99.90;;;21.34;66.07;95879.00;10504708;28;1907;-77
2021/09/13 10:25:38;;;;;;;;;;;22.40;99.90;;;21.29;66.95;95873.75;10516070;28;2126;-76
2021/09/13 10:30:41;;;;;;;;;;;22.20;99.90;;;21.19;67.31;95879.66;10517119;28;2549;-76
2021/09/13 10:35:44;;;;;;;;;;;22.10;99.90;;;21.27;66.84;95876.81;10528637;28;2075;-76
2021/09/13 10:40:47;;;;;;;;;;;22.20;99.90;;;21.86;65.98;95870.94;10515890;28;2102;-76
2021/09/13 10:45:50;;;;;;;;;;;22.50;99.90;;;21.95;64.18;95868.09;10524913;28;2051;-77
2021/09/13 10:50:53;;;;;;;;;;;22.90;99.90;;;22.25;63.06;95870.56;10514121;28;2102;-75
2021/09/13 10:55:56;;;;;;;;;;;23.10;99.90;;;22.08;63.64;95868.88;10516687;28;2340;-77
2021/09/13 11:00:59;;;;;;;;;;;23.00;99.90;;;21.62;65.45;95861.94;10514996;28;2265;-77
2021/09/13 11:06:02;;;;;;;;;;;22.70;99.90;;;21.38;65.69;95849.06;10500206;28;1980;-75
2021/09/13 11:11:05;;;;;;;;;;;22.40;99.90;;;21.66;65.18;95843.72;10516875;28;2091;-77
2021/09/13 11:16:08;;;;;;;;;;;22.40;99.90;;;21.67;63.83;95843.34;10520798;28;2042;-76
2021/09/13 11:21:11;;;;;;;;;;;22.60;99.90;;;21.87;63.16;95852.56;10507338;28;1940;-75
2021/09/13 11:26:14;;;;;;;;;;;22.70;99.90;;;22.11;61.53;95838.88;10526934;28;2037;-74
2021/09/13 11:31:16;;;;;;;;;;;22.90;99.90;;;22.13;61.45;95841.25;10518940;28;1995;-75
2021/09/13 11:36:19;;;;;;;;;;;23.00;99.90;;;22.24;61.67;95836.91;10512451;28;2042;-75
2021/09/13 11:41:22;;;;;;;;;;;23.00;99.90;;;21.77;61.87;95831.16;10512596;28;2054;-75
2021/09/13 11:46:27;;;;;;;;;;;22.80;99.90;;;22.38;61.74;95831.03;10517804;28;2102;-74
2021/09/13 11:51:30;;;;;;;;;;;22.90;99.90;;;22.93;60.13;95823.97;10511053;28;2035;-75
2021/09/13 11:56:33;;;;;;;;;;;23.40;99.90;;;23.02;58.09;95816.38;10514887;28;1937;-76
2021/09/13 12:01:39;;;;;;;;;;;23.80;99.90;;;23.55;56.75;95814.16;10516981;28;1841;-74
2021/09/13 12:06:42;;;;;;;;;;;24.10;99.90;;;24.34;55.42;95818.72;10509142;28;2003;-76
2021/09/13 12:11:59;;;;;;;;;;;24.50;99.90;;;23.93;55.19;95809.97;10518236;28;2118;-77
2021/09/13 12:17:02;;;;;;;;;;;24.70;99.90;;;23.69;55.12;95806.28;10509789;28;2166;-77
2021/09/13 12:22:06;;;;;;;;;;;24.60;99.90;;;23.58;55.56;95810.69;10504749;28;2256;-76
2021/09/13 12:27:14;;;;;;;;;;;24.50;99.90;;;23.45;56.02;95796.28;10506912;28;2082;-76
2021/09/13 12:32:17;;;;;;;;;;;24.50;99.90;;;23.50;55.55;95805.41;10516709;28;1810;-74
2021/09/13 12:37:20;;;;;;;;;;;24.40;99.90;;;23.13;56.89;95794.72;10512336;28;2020;-75
2021/09/13 12:42:43;;;;;;;;;;;24.20;99.90;;;23.04;57.63;95797.63;10512243;28;2035;-75
2021/09/13 12:47:45;;;;;;;;;;;24.10;99.90;;;23.56;55.48;95803.97;10517596;28;1904;-74
2021/09/13 12:52:48;;;;;;;;;;;24.40;99.90;;;23.19;56.53;95796.84;10512013;28;1988;-75
2021/09/13 12:57:51;;;;;;;;;;;24.30;99.90;;;22.95;59.09;95780.56;10516633;28;2043;-75
2021/09/13 13:02:54;;;;;;;;;;;24.00;99.90;;;22.44;59.47;95779.56;10505510;28;1932;-73
2021/09/13 13:07:57;;;;;;;;;;;23.60;99.90;;;22.38;58.76;95784.47;10519740;28;1996;-74
2021/09/13 13:13:01;;;;;;;;;;;23.40;99.90;;;22.71;58.53;95773.25;10516165;28;2027;-73
2021/09/13 13:18:03;;;;;;;;;;;23.40;99.90;;;22.99;56.80;95767.75;10515848;28;2086;-72
2021/09/13 13:23:06;;;;;;;;;;;23.70;99.90;;;23.26;56.66;95766.03;10516362;28;2015;-72
2021/09/13 13:28:09;;;;;;;;;;;23.90;99.90;;;23.33;56.22;95760.72;10511270;28;1845;-71
2021/09/13 13:33:13;;;;;;;;;;;24.00;99.90;;;23.31;54.93;95757.56;10513755;28;2105;-74
2021/09/13 13:38:16;;;;;;;;;;;24.10;99.90;;;23.34;53.09;95756.03;10509885;28;1873;-71
2021/09/13 13:43:19;;;;;;;;;;;24.00;99.90;;;23.63;54.50;95755.59;10509933;28;1995;-73
2021/09/13 13:48:22;;;;;;;;;;;24.20;99.90;;;23.94;53.74;95746.47;10506404;28;2031;-74
2021/09/13 13:53:25;;;;;;;;;;;24.50;99.90;;;23.68;54.31;95749.81;10510540;28;1932;-75
2021/09/13 13:58:28;;;;;;;;;;;24.60;99.90;;;23.92;54.56;95734.22;10520030;28;2059;-74
2021/09/13 14:03:31;;;;;;;;;;;24.60;99.90;;;23.73;53.74;95735.03;10524054;28;2019;-73
2021/09/13 14:08:34;;;;;;;;;;;24.70;99.90;;;23.97;53.96;95728.47;10524100;28;2027;-76
2021/09/13 14:13:37;;;;;;;;;;;24.70;99.90;;;24.37;51.66;95725.38;10516442;28;2086;-74
2021/09/13 14:18:40;;;;;;;;;;;24.90;99.90;;;23.88;51.83;95736.13;10516632;28;1901;-74
2021/09/13 14:23:44;;;;;;;;;;;24.90;99.90;;;23.33;53.48;95727.03;10510763;28;2026;-74
2021/09/13 14:28:47;;;;;;;;;;;24.40;99.90;;;23.09;54.60;95728.81;10521710;28;2194;-74
2021/09/13 14:33:49;;;;;;;;;;;24.10;99.90;;;23.17;53.45;95727.84;10513331;28;2082;-76
2021/09/13 14:38:52;;;;;;;;;;;24.00;99.90;;;22.92;54.24;95724.50;10517887;28;2023;-75
2021/09/13 14:43:55;;;;;;;;;;;23.90;99.90;;;23.51;53.13;95727.44;10521882;28;1983;-75
2021/09/13 14:48:58;;;;;;;;;;;24.10;99.90;;;23.81;52.26;95719.50;10512174;28;1964;-75
2021/09/13 14:54:03;;;;;;;;;;;24.40;99.90;;;23.60;52.88;95717.88;10526036;28;2098;-75
2021/09/13 14:59:06;;;;;;;;;;;24.50;99.90;;;23.44;53.92;95711.63;10518620;28;1988;-74
2021/09/13 15:04:09;;;;;;;;;;;24.30;99.90;;;23.24;55.49;95718.19;10513502;28;2098;-73
2021/09/13 15:09:12;;;;;;;;;;;24.20;99.90;;;22.78;56.42;95723.34;10518061;28;2035;-73
2021/09/13 15:14:15;;;;;;;;;;;24.00;99.90;;;22.77;56.29;95716.22;10511771;28;1959;-71
2021/09/13 15:19:19;;;;;;;;;;;23.70;99.90;;;22.75;56.29;95715.81;10519360;28;2014;-71
2021/09/13 15:24:22;;;;;;;;;;;23.70;99.90;;;22.64;56.73;95723.72;10514018;28;2418;-74
2021/09/13 15:29:25;;;;;;;;;;;23.60;99.90;;;22.59;57.02;95711.13;10518028;28;2030;-74
2021/09/13 15:34:28;;;;;;;;;;;23.50;99.90;;;22.45;57.44;95713.47;10513781;28;1837;-74
2021/09/13 15:39:31;;;;;;;;;;;23.50;99.90;;;22.54;56.23;95708.63;10518586;28;2012;-74
2021/09/13 15:44:33;;;;;;;;;;;23.50;99.90;;;22.32;56.41;95706.47;10517527;28;2007;-74
2021/09/13 15:49:36;;;;;;;;;;;23.30;99.90;;;22.21;57.05;95708.13;10504338;28;2031;-73
2021/09/13 15:54:39;;;;;;;;;;;23.10;99.90;;;22.13;56.80;95705.19;10508568;28;1821;-73
2021/09/13 15:59:42;;;;;;;;;;;23.10;99.90;;;22.15;56.91;95701.31;10517799;28;2265;-73
2021/09/13 16:04:45;;;;;;;;;;;23.00;99.90;;;22.00;57.19;95709.09;10513579;28;2003;-74
2021/09/13 16:09:48;;;;;;;;;;;23.00;99.90;;;21.90;57.23;95706.84;10524120;28;2040;-74
2021/09/13 16:14:50;;;;;;;;;;;22.90;99.90;;;21.91;57.76;95711.19;10511631;28;2039;-74
2021/09/13 16:19:53;;;;;;;;;;;22.80;99.90;;;21.79;58.06;95705.75;10515597;28;2094;-74
2021/09/13 16:24:58;;;;;;;;;;;22.80;99.90;;;21.74;58.04;95703.25;10508382;28;1986;-74
2021/09/13 16:30:00;;;;;;;;;;;22.70;99.90;;;21.68;59.45;95702.69;10516872;28;2088;-73
2021/09/13 16:35:03;;;;;;;;;;;22.60;99.90;;;21.57;60.11;95707.88;10509399;28;1998;-72
2021/09/13 16:40:06;;;;;;;;;;;22.60;99.90;;;21.50;60.17;95710.41;10513264;28;1841;-73
2021/09/13 16:45:09;;;;;;;;;;;22.50;99.90;;;21.42;60.88;95724.97;10522417;28;2113;-73
2021/09/13 16:50:12;;;;;;;;;;;22.40;99.90;;;21.38;61.04;95710.41;10502702;28;2169;-73
2021/09/13 16:55:15;;;;;;;;;;;22.30;99.90;;;21.30;61.80;95711.31;10510240;28;1994;-74
2021/09/13 17:00:18;;;;;;;;;;;22.30;99.90;;;21.15;62.44;95718.25;10527496;28;2121;-74
2021/09/13 17:05:21;;;;;;;;;;;22.20;99.90;;;21.11;63.47;95714.59;10525610;28;1983;-75
2021/09/13 17:10:24;;;;;;;;;;;22.10;99.90;;;20.93;64.60;95721.44;10539376;28;1487;-71
2021/09/13 17:15:26;;;;;;;;;;;22.00;99.90;;;20.79;66.15;95725.28;10517269;28;2120;-72
2021/09/13 17:20:29;;;;;;;;;;;21.80;99.90;;;20.61;67.26;95723.09;10519087;28;2094;-75
2021/09/13 17:25:32;;;;;;;;;;;21.70;99.90;;;20.46;68.36;95725.34;10532930;28;2052;-74
2021/09/13 17:30:35;;;;;;;;;;;21.50;99.90;;;20.32;69.42;95733.03;10538653;28;2008;-74
2021/09/13 17:35:38;;;;;;;;;;;21.40;99.90;;;20.04;70.89;95726.53;10518615;28;2046;-74
2021/09/13 17:40:41;;;;;;;;;;;21.20;99.90;;;19.96;72.20;95729.00;10525223;28;2019;-74
2021/09/13 17:45:44;;;;;;;;;;;21.00;99.90;;;19.91;72.65;95731.16;10520169;28;1984;-74
2021/09/13 17:50:47;;;;;;;;;;;21.00;99.90;;;19.80;74.33;95730.78;10525015;28;2104;-74
2021/09/13 17:55:50;;;;;;;;;;;20.90;99.90;;;19.66;75.08;95727.53;10520087;28;2108;-74
2021/09/13 18:00:53;;;;;;;;;;;20.80;99.90;;;19.58;76.17;95736.53;10530800;28;2090;-73
2021/09/13 18:05:56;;;;;;;;;;;20.70;99.90;;;19.54;77.17;95735.59;10528232;28;2135;-74
2021/09/13 18:11:00;;;;;;;;;;;20.60;99.90;;;19.41;77.98;95738.25;10527733;28;1996;-73
2021/09/13 18:16:03;;;;;;;;;;;20.50;99.90;;;19.35;78.75;95747.75;10529072;28;2039;-73
2021/09/13 18:21:06;;;;;;;;;;;20.40;99.90;;;19.24;79.75;95743.78;10527091;28;1913;-74
2021/09/13 18:26:09;;;;;;;;;;;20.30;99.90;;;19.15;80.60;95734.88;10527691;28;2062;-74
2021/09/13 18:31:12;;;;;;;;;;;20.20;99.90;;;19.11;81.01;95750.28;10534641;28;2039;-74
2021/09/13 18:36:15;;;;;;;;;;;20.10;99.90;;;19.03;82.03;95749.19;10533467;28;1843;-74
2021/09/13 18:41:18;;;;;;;;;;;20.10;99.90;;;18.89;82.87;95743.97;10536678;28;2102;-74
2021/09/13 18:46:20;;;;;;;;;;;20.00;99.90;;;18.85;83.67;95748.47;10531029;28;2078;-74
2021/09/13 18:51:24;;;;;;;;;;;19.90;99.90;;;18.82;84.15;95748.31;10529153;28;1824;-73
2021/09/13 18:56:28;;;;;;;;;;;19.90;99.90;;;18.78;84.55;95753.63;10543438;28;1805;-75
2021/09/13 19:01:31;;;;;;;;;;;19.80;99.90;;;18.83;84.54;95760.81;10540298;28;2098;-75
2021/09/13 19:06:34;;;;;;;;;;;19.80;99.90;;;18.81;84.69;95758.41;10541387;28;2043;-78
2021/09/13 19:11:37;;;;;;;;;;;19.80;99.90;;;18.78;85.04;95769.19;10527649;28;1802;-75
2021/09/13 19:16:40;;;;;;;;;;;19.80;99.90;;;18.73;85.42;95769.34;10534238;28;2046;-76
2021/09/13 19:21:43;;;;;;;;;;;19.80;99.90;;;18.77;85.54;95773.81;10536635;28;1850;-76
2021/09/13 19:26:46;;;;;;;;;;;19.70;99.90;;;18.67;86.32;95776.88;10528562;28;1984;-75
2021/09/13 19:31:48;;;;;;;;;;;19.70;99.90;;;18.62;87.07;95782.47;10519038;28;2106;-76
2021/09/13 19:36:51;;;;;;;;;;;19.70;99.90;;;18.42;87.61;95783.16;10513031;28;2183;-75
2021/09/13 19:41:54;;;;;;;;;;;19.50;99.90;;;18.44;88.69;95789.88;10518940;28;1964;-74
2021/09/13 19:46:57;;;;;;;;;;;19.50;99.90;;;18.41;88.59;95792.47;10535938;28;2114;-75
2021/09/13 19:52:00;;;;;;;;;;;19.40;99.90;;;18.43;88.73;95785.56;10522922;28;1833;-76
2021/09/13 19:57:05;;;;;;;;;;;19.40;99.90;;;18.42;88.88;95791.34;10511929;28;2075;-73
2021/09/13 20:02:10;;;;;;;;;;;19.40;99.90;;;18.51;88.66;95798.38;10520841;28;1965;-70
2021/09/13 20:07:14;;;;;;;;;;;19.40;99.90;;;18.57;88.21;95796.25;10516921;28;2009;-72
2021/09/13 20:12:16;;;;;;;;;;;19.50;99.90;;;18.47;89.12;95802.06;10521683;28;1818;-75
2021/09/13 20:17:19;;;;;;;;;;;19.40;99.90;;;18.45;89.06;95799.66;10523781;28;2087;-75
2021/09/13 20:22:22;;;;;;;;;;;19.40;99.90;;;18.47;89.56;95789.25;10519895;28;1912;-74
2021/09/13 20:27:25;;;;;;;;;;;19.40;99.90;;;18.44;89.56;95791.78;10518754;28;2035;-74
2021/09/13 20:32:28;;;;;;;;;;;19.40;99.90;;;18.36;90.26;95791.50;10524630;28;1998;-74
2021/09/13 20:37:32;;;;;;;;;;;19.40;99.90;;;18.37;90.45;95795.81;10524418;28;1809;-75
2021/09/13 20:42:34;;;;;;;;;;;19.30;99.90;;;18.37;90.22;95784.13;10525255;28;2031;-75
2021/09/13 20:47:37;;;;;;;;;;;19.30;99.90;;;18.26;90.94;95780.97;10518768;28;2023;-75
2021/09/13 20:52:40;;;;;;;;;;;19.20;99.90;;;18.24;91.00;95779.66;10513800;28;2023;-75
2021/09/13 20:57:43;;;;;;;;;;;19.20;99.90;;;18.20;91.23;95782.25;10510409;28;2071;-74
2021/09/13 21:02:46;;;;;;;;;;;19.20;99.90;;;18.21;91.60;95778.41;10517786;28;2056;-76
2021/09/13 21:07:49;;;;;;;;;;;19.10;99.90;;;18.13;91.89;95786.56;10519512;28;2008;-74
2021/09/13 21:12:52;;;;;;;;;;;19.10;99.90;;;17.94;92.98;95789.59;10512395;28;2074;-74
2021/09/13 21:17:55;;;;;;;;;;;19.00;99.90;;;17.77;94.13;95788.47;10514431;28;1825;-74
2021/09/13 21:22:59;;;;;;;;;;;18.90;99.90;;;17.76;93.70;95784.16;10524854;28;2102;-73
2021/09/13 21:28:02;;;;;;;;;;;18.80;99.90;;;17.70;94.03;95773.75;10515875;28;2036;-73
2021/09/13 21:33:04;;;;;;;;;;;18.70;99.90;;;17.49;95.07;95785.19;10525564;28;1849;-75
2021/09/13 21:38:07;;;;;;;;;;;18.60;99.90;;;17.52;94.66;95772.91;10516431;28;2043;-75
2021/09/13 21:43:10;;;;;;;;;;;18.60;99.90;;;17.33;96.03;95780.56;10513353;28;2027;-77
2021/09/13 21:48:13;;;;;;;;;;;18.50;99.90;;;17.21;97.34;95783.88;10516382;28;2058;-73
2021/09/13 21:53:16;;;;;;;;;;;18.40;99.90;;;17.19;97.38;95776.03;10518231;28;2086;-74
2021/09/13 21:58:19;;;;;;;;;;;18.30;99.90;;;17.16;97.67;95771.22;10516524;28;2032;-74
2021/09/13 22:03:22;;;;;;;;;;;18.20;99.90;;;17.08;98.15;95769.28;10520114;28;2094;-75
2021/09/13 22:08:25;;;;;;;;;;;18.20;99.90;;;17.02;98.48;95763.19;10523979;28;2020;-75
2021/09/13 22:13:28;;;;;;;;;;;18.10;99.90;;;17.05;98.71;95759.06;10517158;28;2020;-75
2021/09/13 22:18:31;;;;;;;;;;;18.10;99.90;;;17.15;97.82;95761.47;10524461;28;2071;-74
2021/09/13 22:23:34;;;;;;;;;;;18.10;99.90;;;17.10;98.33;95767.06;10517233;28;2258;-75
2021/09/13 22:28:36;;;;;;;;;;;18.10;99.90;;;17.16;97.99;95768.50;10521425;28;2047;-76
2021/09/13 22:33:39;;;;;;;;;;;18.10;99.90;;;17.22;97.57;95778.13;10528242;28;2018;-74
2021/09/13 22:38:42;;;;;;;;;;;18.10;99.90;;;17.15;98.04;95774.25;10528536;28;1940;-75
2021/09/13 22:43:45;;;;;;;;;;;18.10;99.90;;;17.24;97.64;95784.06;10520542;28;1980;-76
2021/09/13 22:48:48;;;;;;;;;;;18.20;99.90;;;17.14;97.85;95776.19;10531620;28;2185;-75
2021/09/13 22:53:51;;;;;;;;;;;18.20;99.90;;;17.17;98.07;95777.47;10544900;28;1774;-75
2021/09/13 22:58:54;;;;;;;;;;;18.10;99.90;;;16.99;100.00;95771.19;10561766;28;2078;-74
2021/09/13 23:03:56;;;;;;;;;;;18.10;99.90;;;16.83;100.00;95767.28;10570705;28;2154;-73
2021/09/13 23:09:19;;;;;;;;;;;17.90;99.90;;;16.75;100.00;95771.56;10572005;28;1894;-74
2021/09/13 23:14:22;;;;;;;;;;;17.90;99.90;;;16.83;100.00;95772.72;10554165;28;1846;-75